Terminal Aerodrome Forecast
Issued by NWS

Home | Current Version | Previous Version | Text Only | Print | Product List | Glossary On
Versions: 1 2 3 4 5 6 7 8 9 10 11 12 13 14
000
FTPA31 PHFO 211138
TAFHMK
TAF
PHMK 211138Z 2112/2212 04010G18KT P6SM SCT020 BKN050
      TEMPO 2112/2114 BKN020
     FM211800 04010G18KT P6SM VCSH SCT020 BKN045
     FM212000 04016G26KT P6SM VCSH SCT025 BKN045
     FM220400 04012G19KT P6SM FEW025 SCT050 BKN300=

USA.gov is the U.S. government's official web portal to all federal, state and local government web resources and services.